createdAt,value
2023-04-04T00:00:34.123Z,20.19
2023-04-04T00:01:34.132Z,20.21
2023-04-04T00:02:34.261Z,20.21
2023-04-04T00:03:34.391Z,20.30
2023-04-04T00:04:34.910Z,20.24
2023-04-04T00:05:34.298Z,20.23
2023-04-04T00:06:34.299Z,20.22
2023-04-04T00:07:34.340Z,20.17
2023-04-04T00:08:34.356Z,20.17
2023-04-04T00:09:34.427Z,20.23
2023-04-04T00:10:34.431Z,20.17
2023-04-04T00:11:34.441Z,20.19
2023-04-04T00:12:34.502Z,20.16
2023-04-04T00:13:34.521Z,20.24
2023-04-04T00:14:34.568Z,20.19
2023-04-04T00:15:34.603Z,20.21
2023-04-04T00:16:34.714Z,20.24
2023-04-04T00:17:34.713Z,20.20
2023-04-04T00:18:34.676Z,20.12
2023-04-04T00:19:34.748Z,20.12
2023-04-04T00:20:34.770Z,20.12
2023-04-04T00:21:34.785Z,20.10
2023-04-04T00:22:34.834Z,19.97
2023-04-04T00:23:34.853Z,20.11
2023-04-04T00:24:34.856Z,20.15
2023-04-04T00:25:34.925Z,20.11
2023-04-04T00:26:34.938Z,20.05
2023-04-04T00:27:34.991Z,20.04
2023-04-04T00:28:35.009Z,20.09
2023-04-04T00:29:34.993Z,19.97
2023-04-04T00:30:35.050Z,20.07
2023-04-04T00:31:35.100Z,19.97
2023-04-04T00:32:35.208Z,20.00
2023-04-04T00:33:35.124Z,20.04
2023-04-04T00:34:35.142Z,20.11
2023-04-04T00:35:35.249Z,20.12
2023-04-04T00:36:35.216Z,20.13
2023-04-04T00:37:35.261Z,20.12
2023-04-04T00:38:35.292Z,20.11
2023-04-04T00:39:35.334Z,20.08
2023-04-04T00:40:35.348Z,20.05
2023-04-04T00:41:35.371Z,20.00
2023-04-04T00:42:35.394Z,20.03
2023-04-04T00:43:35.445Z,19.97
2023-04-04T00:44:35.490Z,19.95
2023-04-04T00:45:35.559Z,20.04
2023-04-04T00:46:39.324Z,20.09
2023-04-04T00:47:35.532Z,20.00
2023-04-04T00:48:36.331Z,19.95
2023-04-04T00:49:35.471Z,19.86
2023-04-04T00:50:35.440Z,19.93
2023-04-04T00:51:35.445Z,19.89
2023-04-04T00:52:35.446Z,19.90
2023-04-04T00:53:35.389Z,19.85
2023-04-04T00:54:35.367Z,19.82
2023-04-04T00:55:35.381Z,19.98
2023-04-04T00:56:35.353Z,19.97
2023-04-04T00:57:35.323Z,19.85
2023-04-04T00:58:35.309Z,19.80
2023-04-04T00:59:35.280Z,19.81
2023-04-04T01:00:35.233Z,19.89
2023-04-04T01:01:35.306Z,19.96
2023-04-04T01:02:35.271Z,19.94
2023-04-04T01:03:35.271Z,19.96
2023-04-04T01:04:35.199Z,19.96
2023-04-04T01:05:35.138Z,19.92
2023-04-04T01:06:35.123Z,19.86
2023-04-04T01:07:37.141Z,19.89
2023-04-04T01:08:35.102Z,19.89
2023-04-04T01:09:35.068Z,19.84
2023-04-04T01:10:35.038Z,19.81
2023-04-04T01:11:35.044Z,19.80
2023-04-04T01:12:35.039Z,19.74
2023-04-04T01:13:35.066Z,19.80
2023-04-04T01:14:35.094Z,19.76
2023-04-04T01:15:35.099Z,19.76
2023-04-04T01:16:35.171Z,19.78
2023-04-04T01:17:35.210Z,19.80
2023-04-04T01:18:35.212Z,19.76
2023-04-04T01:19:35.245Z,19.74
2023-04-04T01:20:35.262Z,19.76
2023-04-04T01:21:35.312Z,19.83
2023-04-04T01:22:35.327Z,19.73
2023-04-04T01:23:35.364Z,19.83
2023-04-04T01:24:35.414Z,19.77
2023-04-04T01:25:35.439Z,19.76
2023-04-04T01:26:35.474Z,19.74
2023-04-04T01:27:35.507Z,19.75
2023-04-04T01:28:35.557Z,19.75
2023-04-04T01:29:35.550Z,19.81
2023-04-04T01:30:35.642Z,19.72
2023-04-04T01:31:35.620Z,19.75
2023-04-04T01:32:35.764Z,19.64
2023-04-04T01:33:35.628Z,19.76
2023-04-04T01:34:35.676Z,19.68
2023-04-04T01:35:35.796Z,19.69
2023-04-04T01:36:35.737Z,19.75
2023-04-04T01:37:35.799Z,19.69
2023-04-04T01:38:35.805Z,19.65
2023-04-04T01:39:35.823Z,19.66
2023-04-04T01:40:35.857Z,19.70
2023-04-04T01:41:35.892Z,19.69
2023-04-04T01:42:35.928Z,19.72
2023-04-04T01:43:35.981Z,19.76
2023-04-04T01:44:36.018Z,19.75
2023-04-04T01:45:36.035Z,19.75
2023-04-04T01:46:36.055Z,19.68
2023-04-04T01:47:36.073Z,19.76
2023-04-04T01:48:36.073Z,19.75
2023-04-04T01:49:36.085Z,19.64
2023-04-04T01:50:36.141Z,19.67
2023-04-04T01:51:36.167Z,19.73
2023-04-04T01:52:36.186Z,19.72
2023-04-04T01:53:36.182Z,19.73
2023-04-04T01:54:36.240Z,19.68
2023-04-04T01:55:36.263Z,19.64
2023-04-04T01:56:36.289Z,19.61
2023-04-04T01:57:36.332Z,19.62
2023-04-04T01:58:36.357Z,19.57
2023-04-04T01:59:36.402Z,19.55
2023-04-04T02:00:36.406Z,19.50
2023-04-04T02:01:36.469Z,19.42
2023-04-04T02:02:36.498Z,19.38
2023-04-04T02:03:36.516Z,19.57
2023-04-04T02:04:36.514Z,19.59
2023-04-04T02:05:36.526Z,19.52
2023-04-04T02:06:36.592Z,19.51
2023-04-04T02:07:36.582Z,19.53
2023-04-04T02:08:36.643Z,19.48
2023-04-04T02:09:37.396Z,19.51
2023-04-04T02:10:36.684Z,19.49
2023-04-04T02:11:36.725Z,19.44
2023-04-04T02:12:36.762Z,19.40
2023-04-04T02:13:36.793Z,19.47
2023-04-04T02:14:36.822Z,19.50
2023-04-04T02:15:36.894Z,19.39
2023-04-04T02:16:36.861Z,19.44
2023-04-04T02:17:36.939Z,19.43
2023-04-04T02:18:36.912Z,19.39
2023-04-04T02:19:36.950Z,19.40
2023-04-04T02:20:36.987Z,19.31
2023-04-04T02:21:37.068Z,19.30
2023-04-04T02:22:37.057Z,19.45
2023-04-04T02:23:37.078Z,19.36
2023-04-04T02:24:37.143Z,19.31
2023-04-04T02:25:37.153Z,19.33
2023-04-04T02:26:37.192Z,19.25
2023-04-04T02:27:37.210Z,19.23
2023-04-04T02:28:37.230Z,19.27
2023-04-04T02:29:37.296Z,19.30
2023-04-04T02:30:37.343Z,19.34
2023-04-04T02:31:37.409Z,19.40
2023-04-04T02:32:37.399Z,19.35
2023-04-04T02:33:37.399Z,19.33
2023-04-04T02:34:37.444Z,19.36
2023-04-04T02:35:37.520Z,19.34
2023-04-04T02:36:37.511Z,19.37
2023-04-04T02:37:37.551Z,19.37
2023-04-04T02:38:37.564Z,19.35
2023-04-04T02:39:37.581Z,19.35
2023-04-04T02:40:37.736Z,19.32
2023-04-04T02:41:37.670Z,19.29
2023-04-04T02:42:37.718Z,19.31
2023-04-04T02:43:37.742Z,19.30
2023-04-04T02:44:37.757Z,19.30
2023-04-04T02:45:37.769Z,19.31
2023-04-04T02:46:37.905Z,19.32
2023-04-04T02:47:37.882Z,19.33
2023-04-04T02:48:37.878Z,19.35
2023-04-04T02:49:37.918Z,19.36
2023-04-04T02:50:37.981Z,19.35
2023-04-04T02:51:38.033Z,19.27
2023-04-04T02:52:38.040Z,19.28
2023-04-04T02:53:38.066Z,19.32
2023-04-04T02:54:38.117Z,19.31
2023-04-04T02:55:38.165Z,19.31
2023-04-04T02:56:38.163Z,19.27
2023-04-04T02:57:38.232Z,19.27
2023-04-04T02:58:38.242Z,19.29
2023-04-04T02:59:38.289Z,19.25
2023-04-04T03:00:38.633Z,19.29
2023-04-04T03:01:38.403Z,19.27
2023-04-04T03:02:38.512Z,19.23
2023-04-04T03:03:38.492Z,19.22
2023-04-04T03:04:38.434Z,19.28
2023-04-04T03:05:38.462Z,19.28
2023-04-04T03:06:38.483Z,19.28
2023-04-04T03:07:38.543Z,19.24
2023-04-04T03:08:38.550Z,19.26
2023-04-04T03:09:38.566Z,19.22
2023-04-04T03:10:38.785Z,19.25
2023-04-04T03:11:38.629Z,19.26
2023-04-04T03:12:38.672Z,19.19
2023-04-04T03:13:38.682Z,19.20
2023-04-04T03:14:38.743Z,19.25
2023-04-04T03:15:38.728Z,19.22
2023-04-04T03:16:38.895Z,19.26
2023-04-04T03:17:40.038Z,19.28
2023-04-04T03:18:38.841Z,19.21
2023-04-04T03:19:38.867Z,19.21
2023-04-04T03:20:39.171Z,19.20
2023-04-04T03:21:38.958Z,19.15
2023-04-04T03:22:38.983Z,19.20
2023-04-04T03:23:38.992Z,19.23
2023-04-04T03:24:40.174Z,19.24
2023-04-04T03:25:39.074Z,19.22
2023-04-04T03:26:39.103Z,19.21
2023-04-04T03:27:39.116Z,19.21
2023-04-04T03:28:39.177Z,19.18
2023-04-04T03:29:39.209Z,19.14
2023-04-04T03:30:39.381Z,19.20
2023-04-04T03:31:39.307Z,19.16
2023-04-04T03:32:39.388Z,19.15
2023-04-04T03:33:39.305Z,19.17
2023-04-04T03:34:39.338Z,19.18
2023-04-04T03:35:39.510Z,19.18
2023-04-04T03:36:39.427Z,19.15
2023-04-04T03:37:39.425Z,19.19
2023-04-04T03:38:39.500Z,19.21
2023-04-04T03:39:39.486Z,19.21
2023-04-04T03:40:39.837Z,19.19
2023-04-04T03:41:39.563Z,19.19
2023-04-04T03:42:39.610Z,19.19
2023-04-04T03:43:39.664Z,19.15
2023-04-04T03:44:39.688Z,19.17
2023-04-04T03:45:39.781Z,19.19
2023-04-04T03:46:39.773Z,19.15
2023-04-04T03:47:39.839Z,19.17
2023-04-04T03:48:39.824Z,19.14
2023-04-04T03:49:39.877Z,19.19
2023-04-04T03:50:40.086Z,19.19
2023-04-04T03:51:39.904Z,19.21
2023-04-04T03:52:39.959Z,19.21
2023-04-04T03:53:39.973Z,19.17
2023-04-04T03:54:40.000Z,19.17
2023-04-04T03:55:40.039Z,19.18
2023-04-04T03:56:40.075Z,19.20
2023-04-04T03:57:40.116Z,19.19
2023-04-04T03:58:40.152Z,19.17
2023-04-04T03:59:40.150Z,19.18
2023-04-04T04:00:40.374Z,19.17
2023-04-04T04:01:40.220Z,19.16
2023-04-04T04:02:40.316Z,19.13
2023-04-04T04:03:40.365Z,19.15
2023-04-04T04:04:40.442Z,19.17
2023-04-04T04:05:40.348Z,19.15
2023-04-04T04:06:40.391Z,19.16
2023-04-04T04:07:40.397Z,19.15
2023-04-04T04:08:40.423Z,19.13
2023-04-04T04:09:40.468Z,19.15
2023-04-04T04:10:40.573Z,19.12
2023-04-04T04:11:40.556Z,19.11
2023-04-04T04:12:40.566Z,19.11
2023-04-04T04:13:40.607Z,19.11
2023-04-04T04:14:40.623Z,19.13
2023-04-04T04:15:40.719Z,19.13
2023-04-04T04:16:40.677Z,19.12
2023-04-04T04:17:40.740Z,19.12
2023-04-04T04:18:40.753Z,19.10
2023-04-04T04:19:40.758Z,19.12
2023-04-04T04:20:41.027Z,19.11
2023-04-04T04:21:40.844Z,19.11
2023-04-04T04:22:40.862Z,19.09
2023-04-04T04:23:40.902Z,19.13
2023-04-04T04:24:40.936Z,19.10
2023-04-04T04:25:40.967Z,19.08
2023-04-04T04:26:40.966Z,19.10
2023-04-04T04:27:41.017Z,19.10
2023-04-04T04:28:41.062Z,19.08
2023-04-04T04:29:41.088Z,19.08
2023-04-04T04:30:41.348Z,19.09
2023-04-04T04:31:41.144Z,19.11
2023-04-04T04:32:41.187Z,19.12
2023-04-04T04:33:41.201Z,19.12
2023-04-04T04:34:41.254Z,19.14
2023-04-04T04:35:41.247Z,19.13
2023-04-04T04:36:41.293Z,19.10
2023-04-04T04:37:41.326Z,19.10
2023-04-04T04:38:41.326Z,19.11
2023-04-04T04:39:41.404Z,19.13
2023-04-04T04:40:41.651Z,19.12
2023-04-04T04:41:41.451Z,19.12
2023-04-04T04:42:41.464Z,19.12
2023-04-04T04:43:41.474Z,19.13
2023-04-04T04:44:41.511Z,19.12
2023-04-04T04:45:41.522Z,19.16
2023-04-04T04:46:41.608Z,19.13
2023-04-04T04:47:41.593Z,19.13
2023-04-04T04:48:41.622Z,19.15
2023-04-04T04:49:41.642Z,19.13
2023-04-04T04:50:41.915Z,19.12
2023-04-04T04:51:41.666Z,19.03
2023-04-04T04:52:41.697Z,19.04
2023-04-04T04:53:41.748Z,19.09
2023-04-04T04:54:41.746Z,19.14
2023-04-04T04:55:41.761Z,19.14
2023-04-04T04:56:41.804Z,19.16
2023-04-04T04:57:41.863Z,19.16
2023-04-04T04:58:41.872Z,19.13
2023-04-04T04:59:41.854Z,19.10
2023-04-04T05:00:48.948Z,19.13
2023-04-04T05:01:41.876Z,19.18
2023-04-04T05:02:42.024Z,19.13
2023-04-04T05:03:41.835Z,19.12
2023-04-04T05:04:41.839Z,19.16
2023-04-04T05:05:41.785Z,19.14
2023-04-04T05:06:41.784Z,19.14
2023-04-04T05:07:41.730Z,19.08
2023-04-04T05:08:41.725Z,19.12
2023-04-04T05:09:41.698Z,19.10
2023-04-04T05:10:42.008Z,19.06
2023-04-04T05:11:41.666Z,19.09
2023-04-04T05:12:41.649Z,19.05
2023-04-04T05:13:41.616Z,19.04
2023-04-04T05:14:41.619Z,19.04
2023-04-04T05:15:41.567Z,19.04
2023-04-04T05:16:41.610Z,19.03
2023-04-04T05:17:41.609Z,19.02
2023-04-04T05:18:41.496Z,19.03
2023-04-04T05:19:41.554Z,19.01
2023-04-04T05:20:41.751Z,19.02
2023-04-04T05:21:41.421Z,19.03
2023-04-04T05:22:41.410Z,19.00
2023-04-04T05:23:41.376Z,19.01
2023-04-04T05:24:41.351Z,19.01
2023-04-04T05:25:41.319Z,18.97
2023-04-04T05:26:41.306Z,18.99
2023-04-04T05:27:41.303Z,18.99
2023-04-04T05:28:41.269Z,18.96
2023-04-04T05:29:41.266Z,18.95
2023-04-04T05:30:41.483Z,18.93
2023-04-04T05:31:41.240Z,18.93
2023-04-04T05:32:41.234Z,18.93
2023-04-04T05:33:41.167Z,18.91
2023-04-04T05:34:41.139Z,18.91
2023-04-04T05:35:41.234Z,18.92
2023-04-04T05:36:41.121Z,18.93
2023-04-04T05:37:41.065Z,18.90
2023-04-04T05:38:41.092Z,18.91
2023-04-04T05:39:41.023Z,18.87
2023-04-04T05:40:41.250Z,18.89
2023-04-04T05:41:40.997Z,18.86
2023-04-04T05:42:41.042Z,18.87
2023-04-04T05:43:41.015Z,18.88
2023-04-04T05:44:41.013Z,18.87
2023-04-04T05:45:48.076Z,18.88
2023-04-04T05:46:41.037Z,18.87
2023-04-04T05:47:41.064Z,18.86
2023-04-04T05:48:40.979Z,18.86
2023-04-04T05:49:40.968Z,18.84
2023-04-04T05:50:41.062Z,18.86
2023-04-04T05:51:40.903Z,18.84
2023-04-04T05:52:40.909Z,18.84
2023-04-04T05:53:40.933Z,18.83
2023-04-04T05:54:40.874Z,18.83
2023-04-04T05:55:40.824Z,18.81
2023-04-04T05:56:40.788Z,18.81
2023-04-04T05:57:40.767Z,18.83
2023-04-04T05:58:40.751Z,18.81
2023-04-04T05:59:40.718Z,18.82
2023-04-04T06:00:40.996Z,18.77
2023-04-04T06:01:41.076Z,18.78
2023-04-04T06:02:40.735Z,18.78
2023-04-04T06:03:40.706Z,18.78
2023-04-04T06:04:40.606Z,18.77
2023-04-04T06:05:40.668Z,18.76
2023-04-04T06:06:40.599Z,18.76
2023-04-04T06:07:40.717Z,18.77
2023-04-04T06:08:53.128Z,18.76
2023-04-04T06:09:41.549Z,18.77
2023-04-04T06:10:40.668Z,18.77
2023-04-04T06:11:40.481Z,18.76
2023-04-04T06:12:40.458Z,18.75
2023-04-04T06:13:40.440Z,18.74
2023-04-04T06:14:40.400Z,18.73
2023-04-04T06:15:40.444Z,18.73
2023-04-04T06:16:40.376Z,18.73
2023-04-04T06:17:40.398Z,18.72
2023-04-04T06:18:40.365Z,18.72
2023-04-04T06:19:40.301Z,18.69
2023-04-04T06:20:40.444Z,18.72
2023-04-04T06:21:40.246Z,18.70
2023-04-04T06:22:40.255Z,18.68
2023-04-04T06:23:40.229Z,18.66
2023-04-04T06:24:40.206Z,18.68
2023-04-04T06:25:40.276Z,18.67
2023-04-04T06:26:40.193Z,18.68
2023-04-04T06:27:40.136Z,18.66
2023-04-04T06:28:40.125Z,18.66
2023-04-04T06:29:40.095Z,18.65
2023-04-04T06:30:40.210Z,18.67
2023-04-04T06:31:40.082Z,18.66
2023-04-04T06:32:40.068Z,18.65
2023-04-04T06:33:40.017Z,18.66
2023-04-04T06:34:40.004Z,18.66
2023-04-04T06:35:39.931Z,18.64
2023-04-04T06:36:39.942Z,18.63
2023-04-04T06:37:39.881Z,18.64
2023-04-04T06:38:39.875Z,18.66
2023-04-04T06:39:39.891Z,18.65
2023-04-04T06:40:40.073Z,18.65
2023-04-04T06:41:39.824Z,18.64
2023-04-04T06:42:39.879Z,18.64
2023-04-04T06:43:39.833Z,18.64
2023-04-04T06:44:39.809Z,18.62
2023-04-04T06:45:39.788Z,18.62
2023-04-04T06:46:39.870Z,18.62
2023-04-04T06:47:39.850Z,18.64
2023-04-04T06:48:39.809Z,18.60
2023-04-04T06:49:39.786Z,18.60
2023-04-04T06:50:40.024Z,18.59
2023-04-04T06:51:39.790Z,18.62
2023-04-04T06:52:40.118Z,18.62
2023-04-04T06:53:39.756Z,18.61
2023-04-04T06:54:39.743Z,18.61
2023-04-04T06:55:39.716Z,18.60
2023-04-04T06:56:39.683Z,18.59
2023-04-04T06:57:39.704Z,18.58
2023-04-04T06:58:39.671Z,18.60
2023-04-04T06:59:39.697Z,18.58
2023-04-04T07:00:39.883Z,18.58
2023-04-04T07:01:39.641Z,18.58
2023-04-04T07:02:39.825Z,18.58
2023-04-04T07:03:39.589Z,18.57
2023-04-04T07:04:39.617Z,18.56
2023-04-04T07:05:39.609Z,18.59
2023-04-04T07:06:39.579Z,18.59
2023-04-04T07:07:39.587Z,18.59
2023-04-04T07:08:39.554Z,18.61
2023-04-04T07:09:39.616Z,18.57
2023-04-04T07:10:40.685Z,18.58
2023-04-04T07:11:39.501Z,18.58
2023-04-04T07:12:39.533Z,18.57
2023-04-04T07:13:39.463Z,18.57
2023-04-04T07:14:39.504Z,18.57
2023-04-04T07:15:39.445Z,18.56
2023-04-04T07:16:39.503Z,18.58
2023-04-04T07:17:39.469Z,18.56
2023-04-04T07:18:39.445Z,18.54
2023-04-04T07:19:39.386Z,18.56
2023-04-04T07:20:39.580Z,18.56
2023-04-04T07:21:39.352Z,18.56
2023-04-04T07:22:39.380Z,18.55
2023-04-04T07:23:39.369Z,18.54
2023-04-04T07:24:39.348Z,18.55
2023-04-04T07:25:39.337Z,18.54
2023-04-04T07:26:39.299Z,18.54
2023-04-04T07:27:39.297Z,18.53
2023-04-04T07:28:39.295Z,18.54
2023-04-04T07:29:39.282Z,18.54
2023-04-04T07:30:39.454Z,18.56
2023-04-04T07:31:39.308Z,18.55
2023-04-04T07:32:39.389Z,18.55
2023-04-04T07:33:39.219Z,18.56
2023-04-04T07:34:39.228Z,18.56
2023-04-04T07:35:39.297Z,18.56
2023-04-04T07:36:39.194Z,18.55
2023-04-04T07:37:39.169Z,18.54
2023-04-04T07:38:39.121Z,18.55
2023-04-04T07:39:39.161Z,18.53
2023-04-04T07:40:39.252Z,18.53
2023-04-04T07:41:39.092Z,18.51
2023-04-04T07:42:39.069Z,18.53
2023-04-04T07:43:39.024Z,18.53
2023-04-04T07:44:39.043Z,18.52
2023-04-04T07:45:39.019Z,18.54
2023-04-04T07:46:39.195Z,18.57
2023-04-04T07:47:39.041Z,18.54
2023-04-04T07:48:38.987Z,18.55
2023-04-04T07:49:38.953Z,18.58
2023-04-04T07:50:39.082Z,18.54
2023-04-04T07:51:38.904Z,18.52
2023-04-04T07:52:38.919Z,18.55
2023-04-04T07:53:38.927Z,18.53
2023-04-04T07:54:38.884Z,18.54
2023-04-04T07:55:38.865Z,18.53
2023-04-04T07:56:38.876Z,18.49
2023-04-04T07:57:38.838Z,18.44
2023-04-04T07:58:38.805Z,18.41
2023-04-04T07:59:38.821Z,18.34
2023-04-04T08:00:38.986Z,18.35
2023-04-04T08:01:38.764Z,18.34
2023-04-04T08:02:38.865Z,18.33
2023-04-04T08:03:38.982Z,18.36
2023-04-04T08:04:38.806Z,18.34
2023-04-04T08:05:38.769Z,18.34
2023-04-04T08:06:38.731Z,18.36
2023-04-04T08:07:38.754Z,18.34
2023-04-04T08:08:38.760Z,18.35
2023-04-04T08:09:38.712Z,18.35
2023-04-04T08:10:38.907Z,18.35
2023-04-04T08:11:38.761Z,18.36
2023-04-04T08:12:38.717Z,18.36
2023-04-04T08:13:38.709Z,18.36
2023-04-04T08:14:38.697Z,18.38
2023-04-04T08:15:38.799Z,18.35
2023-04-04T08:16:38.725Z,18.35
2023-04-04T08:17:38.806Z,18.36
2023-04-04T08:18:38.749Z,18.34
2023-04-04T08:19:38.761Z,18.33
2023-04-04T08:20:39.024Z,18.32
2023-04-04T08:21:38.764Z,18.31
2023-04-04T08:22:38.798Z,18.31
2023-04-04T08:23:38.819Z,18.26
2023-04-04T08:24:38.815Z,18.28
2023-04-04T08:25:38.828Z,18.28
2023-04-04T08:26:38.831Z,18.25
2023-04-04T08:27:38.836Z,18.24
2023-04-04T08:28:38.920Z,18.22
2023-04-04T08:29:38.821Z,18.21
2023-04-04T08:30:38.945Z,18.23
2023-04-04T08:31:38.832Z,18.17
2023-04-04T08:32:38.813Z,18.17
2023-04-04T08:34:39.751Z,18.18
2023-04-04T08:35:38.797Z,18.20
2023-04-04T08:36:38.677Z,18.19
2023-04-04T08:37:38.665Z,18.18
2023-04-04T08:38:38.659Z,18.15
2023-04-04T08:39:38.616Z,18.18
2023-04-04T08:40:38.837Z,18.18
2023-04-04T08:41:38.571Z,18.18
2023-04-04T08:42:38.534Z,18.20
2023-04-04T08:43:38.480Z,18.18
2023-04-04T08:44:38.441Z,18.22
2023-04-04T08:45:38.455Z,18.17
2023-04-04T08:46:38.463Z,18.19
2023-04-04T08:47:38.453Z,18.19
2023-04-04T08:48:38.383Z,18.15
2023-04-04T08:49:38.418Z,18.16
2023-04-04T08:50:38.517Z,18.14
2023-04-04T08:51:38.306Z,18.10
2023-04-04T08:52:38.267Z,18.10
2023-04-04T08:53:38.266Z,18.10
2023-04-04T08:54:38.223Z,18.08
2023-04-04T08:55:38.168Z,18.06
2023-04-04T08:56:38.170Z,18.07
2023-04-04T08:57:38.129Z,18.09
2023-04-04T08:58:38.143Z,18.05
2023-04-04T08:59:38.334Z,18.05
2023-04-04T09:00:38.511Z,18.07
2023-04-04T09:01:38.228Z,18.04
2023-04-04T09:02:38.329Z,18.02
2023-04-04T09:03:38.281Z,18.06
2023-04-04T09:04:38.226Z,18.05
2023-04-04T09:05:38.222Z,18.01
2023-04-04T09:06:38.296Z,18.00
2023-04-04T09:07:39.452Z,18.04
2023-04-04T09:08:38.248Z,18.01
2023-04-04T09:09:38.270Z,18.02
2023-04-04T09:10:38.416Z,17.98
2023-04-04T09:11:38.270Z,17.99
2023-04-04T09:12:38.258Z,18.00
2023-04-04T09:13:39.566Z,18.02
2023-04-04T09:14:38.209Z,17.99
2023-04-04T09:15:38.200Z,17.98
2023-04-04T09:16:38.177Z,17.96
2023-04-04T09:17:38.183Z,17.94
2023-04-04T09:18:38.110Z,17.94
2023-04-04T09:19:38.108Z,17.94
2023-04-04T09:20:38.433Z,17.93
2023-04-04T09:21:38.041Z,17.94
2023-04-04T09:22:38.026Z,17.96
2023-04-04T09:23:38.018Z,17.94
2023-04-04T09:24:37.957Z,17.92
2023-04-04T09:25:37.921Z,17.91
2023-04-04T09:26:37.884Z,17.91
2023-04-04T09:27:37.865Z,17.92
2023-04-04T09:28:37.841Z,17.92
2023-04-04T09:29:37.784Z,17.89
2023-04-04T09:30:38.151Z,17.90
2023-04-04T09:31:37.928Z,17.91
2023-04-04T09:32:37.757Z,17.89
2023-04-04T09:33:37.697Z,17.92
2023-04-04T09:34:37.671Z,17.91
2023-04-04T09:35:37.719Z,17.90
2023-04-04T09:36:37.627Z,17.86
2023-04-04T09:37:37.622Z,17.88
2023-04-04T09:38:37.609Z,17.87
2023-04-04T09:39:37.558Z,17.87
2023-04-04T09:40:37.615Z,17.88
2023-04-04T09:41:37.505Z,17.91
2023-04-04T09:42:37.518Z,17.88
2023-04-04T09:43:37.758Z,17.87
2023-04-04T09:44:37.445Z,17.88
2023-04-04T09:45:37.682Z,17.87
2023-04-04T09:46:37.444Z,17.86
2023-04-04T09:47:37.384Z,17.84
2023-04-04T09:48:37.414Z,17.86
2023-04-04T09:49:37.328Z,17.87
2023-04-04T09:50:37.810Z,17.87
2023-04-04T09:51:37.233Z,17.85
2023-04-04T09:52:37.170Z,17.86
2023-04-04T09:53:37.314Z,17.83
2023-04-04T09:54:45.364Z,17.84
2023-04-04T09:55:38.283Z,17.87
2023-04-04T09:56:37.109Z,17.83
2023-04-04T09:57:37.033Z,17.85
2023-04-04T09:58:37.322Z,17.85
2023-04-04T09:59:37.003Z,17.83
2023-04-04T10:00:36.988Z,17.84
2023-04-04T10:01:36.950Z,17.85
2023-04-04T10:02:36.961Z,17.85
2023-04-04T10:03:36.940Z,17.85
2023-04-04T10:04:36.870Z,17.88
2023-04-04T10:05:36.910Z,17.86
2023-04-04T10:06:36.944Z,17.85
2023-04-04T10:07:36.974Z,17.88
2023-04-04T10:08:36.985Z,17.86
2023-04-04T10:09:37.025Z,17.83
2023-04-04T10:10:37.070Z,17.85
2023-04-04T10:11:37.057Z,17.85
2023-04-04T10:12:37.120Z,17.84
2023-04-04T10:13:37.152Z,17.86
2023-04-04T10:14:37.098Z,17.88
2023-04-04T10:15:37.217Z,17.83
2023-04-04T10:16:37.262Z,17.83
2023-04-04T10:17:37.303Z,17.84
2023-04-04T10:18:37.248Z,17.85
2023-04-04T10:19:37.286Z,17.85
2023-04-04T10:20:37.562Z,17.84
2023-04-04T10:21:37.350Z,17.85
2023-04-04T10:22:37.387Z,17.86
2023-04-04T10:23:37.417Z,17.89
2023-04-04T10:24:37.440Z,17.86
2023-04-04T10:25:37.445Z,17.84
2023-04-04T10:26:37.808Z,17.84
2023-04-04T10:27:37.483Z,17.86
2023-04-04T10:28:37.531Z,17.83
2023-04-04T10:29:37.546Z,17.85
2023-04-04T10:30:37.940Z,17.86
2023-04-04T10:31:37.585Z,17.85
2023-04-04T10:32:37.595Z,17.82
2023-04-04T10:33:37.621Z,17.81
2023-04-04T10:34:37.627Z,17.79
2023-04-04T10:35:37.710Z,17.78
2023-04-04T10:36:37.740Z,17.77
2023-04-04T10:37:37.753Z,17.78
2023-04-04T10:38:37.742Z,17.79
2023-04-04T10:39:37.790Z,17.81
2023-04-04T10:40:38.013Z,17.76
2023-04-04T10:41:37.830Z,17.73
2023-04-04T10:42:37.881Z,17.69
2023-04-04T10:43:37.866Z,17.70
2023-04-04T10:44:37.916Z,17.70
2023-04-04T10:45:38.011Z,17.68
2023-04-04T10:46:38.020Z,17.65
2023-04-04T10:47:38.061Z,17.69
2023-04-04T10:48:38.039Z,17.65
2023-04-04T10:49:38.085Z,17.64
2023-04-04T10:50:38.105Z,17.65
2023-04-04T10:51:48.792Z,17.65
2023-04-04T10:52:39.129Z,17.66
2023-04-04T10:53:38.086Z,17.64
2023-04-04T10:54:38.047Z,17.62
2023-04-04T10:55:38.180Z,17.64
2023-04-04T10:56:38.005Z,17.65
2023-04-04T10:57:37.976Z,17.65
2023-04-04T10:58:37.946Z,17.66
2023-04-04T10:59:37.931Z,17.68
2023-04-04T11:00:37.887Z,17.65
2023-04-04T11:01:37.856Z,17.63
2023-04-04T11:02:37.868Z,17.61
2023-04-04T11:03:37.903Z,17.61
2023-04-04T11:04:38.116Z,17.62
2023-04-04T11:05:37.987Z,17.58
2023-04-04T11:06:37.964Z,17.58
2023-04-04T11:07:38.048Z,17.61
2023-04-04T11:08:38.072Z,17.61
2023-04-04T11:09:38.081Z,17.60
2023-04-04T11:10:38.107Z,17.60
2023-04-04T11:11:38.225Z,17.62
2023-04-04T11:12:38.144Z,17.60
2023-04-04T11:13:38.186Z,17.58
2023-04-04T11:14:38.232Z,17.60
2023-04-04T11:15:38.370Z,17.59
2023-04-04T11:16:38.307Z,17.56
2023-04-04T11:17:38.381Z,17.59
2023-04-04T11:18:38.432Z,17.62
2023-04-04T11:19:38.388Z,17.60
2023-04-04T11:20:38.341Z,17.58
2023-04-04T11:21:38.378Z,17.58
2023-04-04T11:22:38.426Z,17.57
2023-04-04T11:23:38.435Z,17.61
2023-04-04T11:24:38.476Z,17.59
2023-04-04T11:25:38.767Z,17.55
2023-04-04T11:26:38.542Z,17.58
2023-04-04T11:27:38.604Z,17.55
2023-04-04T11:28:38.602Z,17.56
2023-04-04T11:29:38.600Z,17.55
2023-04-04T11:30:38.618Z,17.55
2023-04-04T11:31:38.766Z,17.54
2023-04-04T11:32:38.766Z,17.54
2023-04-04T11:33:38.776Z,17.52
2023-04-04T11:34:38.749Z,17.49
2023-04-04T11:35:39.017Z,17.49
2023-04-04T11:36:38.864Z,17.45
2023-04-04T11:37:38.939Z,17.45
2023-04-04T11:38:38.935Z,17.50
2023-04-04T11:39:38.936Z,17.47
2023-04-04T11:40:38.938Z,17.45
2023-04-04T11:41:38.995Z,17.49
2023-04-04T11:42:39.047Z,17.57
2023-04-04T11:43:39.062Z,17.46
2023-04-04T11:44:39.128Z,17.45
2023-04-04T11:45:39.510Z,17.47
2023-04-04T11:46:39.199Z,17.46
2023-04-04T11:47:39.200Z,17.44
2023-04-04T11:48:39.214Z,17.44
2023-04-04T11:49:39.221Z,17.45
2023-04-04T11:50:39.284Z,17.47
2023-04-04T11:51:39.328Z,17.49
2023-04-04T11:52:39.343Z,17.44
2023-04-04T11:53:39.352Z,17.44
2023-04-04T11:54:39.354Z,17.40
2023-04-04T11:55:39.710Z,17.41
2023-04-04T11:56:39.384Z,17.44
2023-04-04T11:57:39.414Z,17.42
2023-04-04T11:58:39.433Z,17.41
2023-04-04T11:59:39.453Z,17.39
2023-04-04T12:00:39.421Z,17.38
2023-04-04T12:01:39.382Z,17.37
2023-04-04T12:02:39.442Z,17.37
2023-04-04T12:03:39.414Z,17.38
2023-04-04T12:04:41.125Z,17.40
2023-04-04T12:05:39.584Z,17.40
2023-04-04T12:06:39.416Z,17.43
2023-04-04T12:07:39.292Z,17.40
2023-04-04T12:08:39.267Z,17.37
2023-04-04T12:09:39.244Z,17.39
2023-04-04T12:10:39.174Z,17.39
2023-04-04T12:11:39.166Z,17.38
2023-04-04T12:12:39.167Z,17.42
2023-04-04T12:13:39.113Z,17.39
2023-04-04T12:14:39.071Z,17.44
2023-04-04T12:15:39.265Z,17.40
2023-04-04T12:16:39.164Z,17.39
2023-04-04T12:17:39.010Z,17.41
2023-04-04T12:18:38.934Z,17.43
2023-04-04T12:19:38.893Z,17.43
2023-04-04T12:20:38.863Z,17.37
2023-04-04T12:21:38.843Z,17.32
2023-04-04T12:22:38.800Z,17.33
2023-04-04T12:23:38.745Z,17.35
2023-04-04T12:24:38.708Z,17.33
2023-04-04T12:25:39.027Z,17.39
2023-04-04T12:26:38.664Z,17.39
2023-04-04T12:27:38.621Z,17.40
2023-04-04T12:28:38.585Z,17.41
2023-04-04T12:29:38.559Z,17.43
2023-04-04T12:30:38.550Z,17.40
2023-04-04T12:31:38.546Z,17.40
2023-04-04T12:32:38.493Z,17.44
2023-04-04T12:33:38.441Z,17.40
2023-04-04T12:34:38.434Z,17.39
2023-04-04T12:35:38.646Z,17.42
2023-04-04T12:36:38.383Z,17.37
2023-04-04T12:37:38.340Z,17.42
2023-04-04T12:38:38.317Z,17.39
2023-04-04T12:39:38.271Z,17.38
2023-04-04T12:40:38.273Z,17.41
2023-04-04T12:41:38.241Z,17.40
2023-04-04T12:42:38.224Z,17.42
2023-04-04T12:43:38.178Z,17.40
2023-04-04T12:44:38.182Z,17.40
2023-04-04T12:45:38.346Z,17.39
2023-04-04T12:46:38.219Z,17.38
2023-04-04T12:47:38.200Z,17.41
2023-04-04T12:48:38.245Z,17.45
2023-04-04T12:49:38.217Z,17.41
2023-04-04T12:50:38.209Z,17.41
2023-04-04T12:51:38.277Z,17.40
2023-04-04T12:52:38.286Z,17.42
2023-04-04T12:53:38.274Z,17.37